createdAt,value
2023-04-27T00:01:16.746Z,1.10
2023-04-27T00:03:45.937Z,1.63
2023-04-27T00:06:13.905Z,1.73
2023-04-27T00:08:41.678Z,1.05
2023-04-27T00:11:09.441Z,1.30
2023-04-27T00:13:38.560Z,1.20
2023-04-27T00:16:06.800Z,1.35
2023-04-27T00:18:34.533Z,1.58
2023-04-27T00:21:02.271Z,1.23
2023-04-27T00:23:29.975Z,1.27
2023-04-27T00:25:57.673Z,1.45
2023-04-27T00:28:25.486Z,1.38
2023-04-27T00:30:55.153Z,1.20
2023-04-27T00:33:22.922Z,1.73
2023-04-27T00:35:50.723Z,1.13
2023-04-27T00:38:18.472Z,2.10
2023-04-27T00:40:46.172Z,1.88
2023-04-27T00:43:13.855Z,1.45
2023-04-27T00:45:43.669Z,1.35
2023-04-27T00:48:13.489Z,1.10
2023-04-27T00:50:41.311Z,1.30
2023-04-27T00:53:09.514Z,1.13
2023-04-27T00:55:37.271Z,1.23
2023-04-27T00:58:04.996Z,1.50
2023-04-27T01:00:32.866Z,1.10
2023-04-27T01:03:02.006Z,1.00
2023-04-27T01:05:32.568Z,1.23
2023-04-27T01:08:00.545Z,1.10
2023-04-27T01:10:28.506Z,1.60
2023-04-27T01:12:56.469Z,1.10
2023-04-27T01:15:24.218Z,0.98
2023-04-27T01:17:58.953Z,1.77
2023-04-27T01:20:30.164Z,1.63
2023-04-27T01:22:59.982Z,0.95
2023-04-27T01:25:29.106Z,1.58
2023-04-27T01:27:56.799Z,1.35
2023-04-27T01:30:24.483Z,1.23
2023-04-27T01:32:52.221Z,1.77
2023-04-27T01:35:20.003Z,1.20
2023-04-27T01:37:47.797Z,1.02
2023-04-27T01:40:15.993Z,1.17
2023-04-27T01:42:45.095Z,1.58
2023-04-27T01:45:13.373Z,1.33
2023-04-27T01:47:41.412Z,0.93
2023-04-27T01:50:09.844Z,1.25
2023-04-27T01:52:37.644Z,1.35
2023-04-27T01:55:06.303Z,0.98
2023-04-27T01:57:33.978Z,1.50
2023-04-27T02:00:03.074Z,1.42
2023-04-27T02:02:30.900Z,1.30
2023-04-27T02:04:58.700Z,2.08
2023-04-27T02:07:26.449Z,1.13
2023-04-27T02:09:54.214Z,1.45
2023-04-27T02:12:22.068Z,2.35
2023-04-27T02:14:49.799Z,2.22
2023-04-27T02:17:18.901Z,1.92
2023-04-27T02:19:46.699Z,1.70
2023-04-27T02:22:14.421Z,2.42
2023-04-27T02:24:42.070Z,2.42
2023-04-27T02:27:10.229Z,2.30
2023-04-27T02:29:38.989Z,2.03
2023-04-27T02:32:07.576Z,1.60
2023-04-27T02:34:36.601Z,2.47
2023-04-27T02:37:04.325Z,2.42
2023-04-27T02:39:32.052Z,1.63
2023-04-27T02:41:59.791Z,1.58
2023-04-27T02:44:27.471Z,1.40
2023-04-27T02:46:55.250Z,1.75
2023-04-27T02:49:23.066Z,1.50
2023-04-27T02:51:52.139Z,1.42
2023-04-27T02:54:19.823Z,1.63
2023-04-27T02:56:47.537Z,1.23
2023-04-27T02:59:15.607Z,1.20
2023-04-27T03:01:44.094Z,1.42
2023-04-27T03:04:14.037Z,1.00
2023-04-27T03:06:42.172Z,1.92
2023-04-27T03:09:11.560Z,1.50
2023-04-27T03:11:39.674Z,1.33
2023-04-27T03:14:07.458Z,1.75
2023-04-27T03:16:35.628Z,1.02
2023-04-27T03:19:03.804Z,1.10
2023-04-27T03:21:31.795Z,0.88
2023-04-27T03:23:59.592Z,1.23
2023-04-27T03:26:28.666Z,1.35
2023-04-27T03:28:56.531Z,1.30
2023-04-27T03:31:24.256Z,1.48
2023-04-27T03:33:51.989Z,1.52
2023-04-27T03:36:19.739Z,1.17
2023-04-27T03:38:47.469Z,1.17
2023-04-27T03:41:15.199Z,1.23
2023-04-27T03:43:44.306Z,1.58
2023-04-27T03:46:12.050Z,1.15
2023-04-27T03:48:40.135Z,0.80
2023-04-27T03:51:08.383Z,1.02
2023-04-27T03:53:36.304Z,1.17
2023-04-27T03:56:04.377Z,1.00
2023-04-27T03:58:32.303Z,1.08
2023-04-27T04:01:01.442Z,1.00
2023-04-27T04:03:29.317Z,1.20
2023-04-27T04:05:57.211Z,1.23
2023-04-27T04:08:24.882Z,1.17
2023-04-27T04:10:52.625Z,1.30
2023-04-27T04:13:20.685Z,1.30
2023-04-27T04:15:48.381Z,2.05
2023-04-27T04:18:17.436Z,1.15
2023-04-27T04:20:45.166Z,1.38
2023-04-27T04:23:12.835Z,0.98
2023-04-27T04:25:41.663Z,1.40
2023-04-27T04:28:09.420Z,0.93
2023-04-27T04:30:37.213Z,1.38
2023-04-27T04:33:05.048Z,1.48
2023-04-27T04:35:34.160Z,1.40
2023-04-27T04:38:01.842Z,2.10
2023-04-27T04:40:29.613Z,1.08
2023-04-27T04:42:57.421Z,1.73
2023-04-27T04:45:25.393Z,1.10
2023-04-27T04:47:54.372Z,1.70
2023-04-27T04:50:22.440Z,1.35
2023-04-27T04:52:52.042Z,0.85
2023-04-27T04:55:19.929Z,1.17
2023-04-27T04:57:47.606Z,1.35
2023-04-27T05:00:15.907Z,1.55
2023-04-27T05:02:43.820Z,1.67
2023-04-27T05:05:11.614Z,1.25
2023-04-27T05:07:39.441Z,1.40
2023-04-27T05:10:09.272Z,1.30
2023-04-27T05:12:37.001Z,0.98
2023-04-27T05:15:07.252Z,1.15
2023-04-27T05:17:34.951Z,1.00
2023-04-27T05:20:02.791Z,1.00
2023-04-27T05:22:30.570Z,1.60
2023-04-27T05:24:59.044Z,0.73
2023-04-27T05:27:28.187Z,1.13
2023-04-27T05:29:55.919Z,0.85
2023-04-27T05:32:23.732Z,0.90
2023-04-27T05:34:52.961Z,0.70
2023-04-27T05:37:20.696Z,1.10
2023-04-27T05:39:48.345Z,0.80
2023-04-27T05:42:16.148Z,1.40
2023-04-27T05:44:45.220Z,0.95
2023-04-27T05:47:12.932Z,1.10
2023-04-27T05:49:41.376Z,1.00
2023-04-27T05:52:09.208Z,1.13
2023-04-27T05:54:36.915Z,1.00
2023-04-27T05:57:04.756Z,0.73
2023-04-27T05:59:32.466Z,1.55
2023-04-27T06:02:01.568Z,1.25
2023-04-27T06:04:29.834Z,1.15
2023-04-27T06:06:58.044Z,1.38
2023-04-27T06:09:25.746Z,1.13
2023-04-27T06:11:53.465Z,0.85
2023-04-27T06:14:21.249Z,0.88
2023-04-27T06:16:49.028Z,0.50
2023-04-27T06:19:18.149Z,0.73
2023-04-27T06:21:46.404Z,1.20
2023-04-27T06:24:14.240Z,1.23
2023-04-27T06:26:41.980Z,1.00
2023-04-27T06:29:09.667Z,1.30
2023-04-27T06:31:37.360Z,0.93
2023-04-27T06:34:05.105Z,1.15
2023-04-27T06:36:34.431Z,1.40
2023-04-27T06:39:02.133Z,1.02
2023-04-27T06:41:29.842Z,1.48
2023-04-27T06:43:59.057Z,1.30
2023-04-27T06:46:27.518Z,1.13
2023-04-27T06:48:55.303Z,0.90
2023-04-27T06:51:23.090Z,1.92
2023-04-27T06:53:52.205Z,1.27
2023-04-27T06:56:19.887Z,1.58
2023-04-27T06:58:47.816Z,1.50
2023-04-27T07:01:15.566Z,1.70
2023-04-27T07:03:43.423Z,1.48
2023-04-27T07:06:11.615Z,1.27
2023-04-27T07:08:39.352Z,1.52
2023-04-27T07:11:08.407Z,2.38
2023-04-27T07:13:36.453Z,1.92
2023-04-27T07:16:04.330Z,1.60
2023-04-27T07:18:32.081Z,2.42
2023-04-27T07:20:59.871Z,2.35
2023-04-27T07:23:27.632Z,1.90
2023-04-27T07:25:55.512Z,1.98
2023-04-27T07:28:24.626Z,1.92
2023-04-27T07:30:52.750Z,2.60
2023-04-27T07:33:20.517Z,2.50
2023-04-27T07:35:50.318Z,3.08
2023-04-27T07:38:18.491Z,2.30
2023-04-27T07:40:46.718Z,2.10
2023-04-27T07:43:15.535Z,2.28
2023-04-27T07:45:45.908Z,1.88
2023-04-27T07:48:13.724Z,2.63
2023-04-27T07:50:41.787Z,2.95
2023-04-27T07:53:09.638Z,2.40
2023-04-27T07:55:37.337Z,2.55
2023-04-27T07:58:05.848Z,2.90
2023-04-27T08:00:33.802Z,2.25
2023-04-27T08:03:03.135Z,2.05
2023-04-27T08:05:31.469Z,2.97
2023-04-27T08:07:59.755Z,2.40
2023-04-27T08:10:28.147Z,2.25
2023-04-27T08:12:56.156Z,2.88
2023-04-27T08:15:23.918Z,2.20
2023-04-27T08:17:51.613Z,2.97
2023-04-27T08:20:20.812Z,2.38
2023-04-27T08:22:48.566Z,4.15
2023-04-27T08:25:16.254Z,2.50
2023-04-27T08:27:44.035Z,2.58
2023-04-27T08:30:12.640Z,1.95
2023-04-27T08:32:40.984Z,2.75
2023-04-27T08:35:09.154Z,2.33
2023-04-27T08:37:38.326Z,3.03
2023-04-27T08:40:08.235Z,2.35
2023-04-27T08:42:36.248Z,2.50
2023-04-27T08:45:04.436Z,2.50
2023-04-27T08:47:41.780Z,2.38
2023-04-27T08:50:11.833Z,1.90
2023-04-27T08:52:40.941Z,2.67
2023-04-27T08:55:09.789Z,2.60
2023-04-27T08:57:37.618Z,1.83
2023-04-27T09:00:13.265Z,1.95
2023-04-27T09:02:47.419Z,3.05
2023-04-27T09:05:18.775Z,3.00
2023-04-27T09:07:59.214Z,2.58
2023-04-27T09:10:29.325Z,2.60
2023-04-27T09:12:58.906Z,2.78
2023-04-27T09:15:26.829Z,2.17
2023-04-27T09:17:56.477Z,2.15
2023-04-27T09:20:27.019Z,2.17
2023-04-27T09:22:56.019Z,1.95
2023-04-27T09:25:29.519Z,2.67
2023-04-27T09:27:58.172Z,2.00
2023-04-27T09:30:26.268Z,2.70
2023-04-27T09:32:55.784Z,2.35
2023-04-27T09:35:24.962Z,2.17
2023-04-27T09:37:53.949Z,2.25
2023-04-27T09:40:26.462Z,1.85
2023-04-27T09:42:56.808Z,2.20
2023-04-27T09:45:25.036Z,2.13
2023-04-27T09:47:53.376Z,2.35
2023-04-27T09:50:21.875Z,1.98
2023-04-27T09:52:49.852Z,2.25
2023-04-27T09:55:19.711Z,1.70
2023-04-27T09:57:55.047Z,2.17
2023-04-27T10:00:40.227Z,2.03
2023-04-27T10:03:18.946Z,2.42
2023-04-27T10:06:07.653Z,2.47
2023-04-27T10:08:36.311Z,2.75
2023-04-27T10:11:15.372Z,2.85
2023-04-27T10:13:54.406Z,2.85
2023-04-27T10:16:24.054Z,2.67
2023-04-27T10:18:53.883Z,2.63
2023-04-27T10:21:22.009Z,2.10
2023-04-27T10:23:51.810Z,2.35
2023-04-27T10:26:26.137Z,2.15
2023-04-27T10:29:05.749Z,2.35
2023-04-27T10:31:35.168Z,2.72
2023-04-27T10:34:10.143Z,2.15
2023-04-27T10:36:38.854Z,2.00
2023-04-27T10:39:17.432Z,2.97
2023-04-27T10:41:53.290Z,1.98
2023-04-27T10:44:28.627Z,2.58
2023-04-27T10:47:00.224Z,2.20
2023-04-27T10:49:28.920Z,2.05
2023-04-27T10:51:59.794Z,2.55
2023-04-27T10:54:29.561Z,1.83
2023-04-27T10:57:03.856Z,1.77
2023-04-27T10:59:31.749Z,2.40
2023-04-27T11:02:01.564Z,2.17
2023-04-27T11:04:39.963Z,1.98
2023-04-27T11:07:08.830Z,3.10
2023-04-27T11:09:37.903Z,2.92
2023-04-27T11:12:08.440Z,3.75
2023-04-27T11:14:36.914Z,2.75
2023-04-27T11:17:06.451Z,1.48
2023-04-27T11:19:34.325Z,1.70
2023-04-27T11:22:06.352Z,1.20
2023-04-27T11:24:34.397Z,1.20
2023-04-27T11:27:02.350Z,1.80
2023-04-27T11:29:39.358Z,1.48
2023-04-27T11:32:08.543Z,1.05
2023-04-27T11:34:38.833Z,1.00
2023-04-27T11:39:41.504Z,1.02
2023-04-27T11:42:19.403Z,0.98
2023-04-27T11:44:53.270Z,0.77
2023-04-27T11:47:23.001Z,0.98
2023-04-27T11:49:52.513Z,1.13
2023-04-27T11:52:20.651Z,1.02
2023-04-27T11:54:49.625Z,1.10
2023-04-27T11:57:17.631Z,1.20
2023-04-27T11:59:45.497Z,1.10
2023-04-27T12:02:13.226Z,0.85
2023-04-27T12:04:42.486Z,1.08
2023-04-27T12:07:12.208Z,1.38
2023-04-27T12:09:39.955Z,1.17
2023-04-27T12:12:08.505Z,2.03
2023-04-27T12:14:36.269Z,1.27
2023-04-27T12:17:04.310Z,1.02
2023-04-27T12:19:32.097Z,1.58
2023-04-27T12:22:01.256Z,1.80
2023-04-27T12:24:28.995Z,1.05
2023-04-27T12:26:56.811Z,1.63
2023-04-27T12:29:24.659Z,1.50
2023-04-27T12:31:52.493Z,1.27
2023-04-27T12:34:20.296Z,1.15
2023-04-27T12:36:48.133Z,1.42
2023-04-27T12:39:19.666Z,1.90
2023-04-27T12:41:48.587Z,1.20
2023-04-27T12:44:17.434Z,1.70
2023-04-27T12:46:46.663Z,1.50
2023-04-27T12:49:14.591Z,1.30
2023-04-27T12:51:42.414Z,1.23
2023-04-27T12:54:11.121Z,1.52
2023-04-27T12:56:40.374Z,1.30
2023-04-27T12:59:08.047Z,1.35
2023-04-27T13:01:35.861Z,1.30
2023-04-27T13:04:05.625Z,1.40
2023-04-27T13:06:33.745Z,1.83
2023-04-27T13:09:02.428Z,1.10
2023-04-27T13:11:30.245Z,1.33
2023-04-27T13:14:00.280Z,1.40
2023-04-27T13:16:28.143Z,1.42
2023-04-27T13:18:56.220Z,1.65
2023-04-27T13:21:24.133Z,1.63
2023-04-27T13:23:54.797Z,1.60
2023-04-27T13:26:22.500Z,1.10
2023-04-27T13:28:51.008Z,1.40
2023-04-27T13:31:20.135Z,1.10
2023-04-27T13:33:47.869Z,1.20
2023-04-27T13:36:15.603Z,1.63
2023-04-27T13:38:43.337Z,1.08
2023-04-27T13:41:11.087Z,1.20
2023-04-27T13:43:38.739Z,1.42
2023-04-27T13:46:06.681Z,1.45
2023-04-27T13:48:35.757Z,1.00
2023-04-27T13:51:03.516Z,1.00
2023-04-27T13:53:31.376Z,1.20
2023-04-27T13:55:59.478Z,1.30
2023-04-27T13:58:29.013Z,1.25
2023-04-27T14:00:57.222Z,1.20
2023-04-27T14:03:25.745Z,1.00
2023-04-27T14:05:54.883Z,1.08
2023-04-27T14:08:22.797Z,0.90
2023-04-27T14:10:50.551Z,0.90
2023-04-27T14:13:19.366Z,1.05
2023-04-27T14:15:47.344Z,1.33
2023-04-27T14:18:15.686Z,1.38
2023-04-27T14:20:45.541Z,1.08
2023-04-27T14:23:14.702Z,1.05
2023-04-27T14:25:42.360Z,0.80
2023-04-27T14:28:12.284Z,1.10
2023-04-27T14:30:40.072Z,0.90
2023-04-27T14:33:07.791Z,0.68
2023-04-27T14:35:37.064Z,1.13
2023-04-27T14:38:05.408Z,0.73
2023-04-27T14:40:34.508Z,0.82
2023-04-27T14:43:02.252Z,0.60
2023-04-27T14:45:39.735Z,1.00
2023-04-27T14:48:15.777Z,1.25
2023-04-27T14:50:43.556Z,1.00
2023-04-27T14:53:11.279Z,1.02
2023-04-27T14:55:41.143Z,0.90
2023-04-27T14:58:08.930Z,0.80
2023-04-27T15:00:36.772Z,0.93
2023-04-27T15:03:04.712Z,1.23
2023-04-27T15:05:32.800Z,1.00
2023-04-27T15:08:00.912Z,0.80
2023-04-27T15:10:28.700Z,0.95
2023-04-27T15:12:57.753Z,1.00
2023-04-27T15:15:25.476Z,1.00
2023-04-27T15:17:53.227Z,1.02
2023-04-27T15:20:21.110Z,0.95
2023-04-27T15:22:48.860Z,0.80
2023-04-27T15:25:16.606Z,0.65
2023-04-27T15:27:44.283Z,0.70
2023-04-27T15:30:14.946Z,0.82
2023-04-27T15:32:42.700Z,0.85
2023-04-27T15:35:10.645Z,0.80
2023-04-27T15:37:38.323Z,0.80
2023-04-27T15:40:07.535Z,0.77
2023-04-27T15:42:35.428Z,0.73
2023-04-27T15:45:03.992Z,0.70
2023-04-27T15:47:33.132Z,0.63
2023-04-27T15:50:00.875Z,0.70
2023-04-27T15:52:28.589Z,0.98
2023-04-27T15:54:56.472Z,0.98
2023-04-27T15:57:24.255Z,0.52
2023-04-27T15:59:52.538Z,0.82
2023-04-27T16:02:20.424Z,0.63
2023-04-27T16:04:50.222Z,0.77
2023-04-27T16:07:17.990Z,0.63
2023-04-27T16:09:45.845Z,0.75
2023-04-27T16:12:13.545Z,0.80
2023-04-27T16:14:41.251Z,0.80
2023-04-27T16:17:08.922Z,0.60
2023-04-27T16:19:36.720Z,0.70
2023-04-27T16:22:06.190Z,1.40
2023-04-27T16:24:34.060Z,0.80
2023-04-27T16:27:03.444Z,1.20
2023-04-27T16:29:31.334Z,0.90
2023-04-27T16:31:59.209Z,1.45
2023-04-27T16:34:27.830Z,1.10
2023-04-27T16:36:56.026Z,1.02
2023-04-27T16:39:25.268Z,1.00
2023-04-27T16:41:53.093Z,1.10
2023-04-27T16:44:20.852Z,0.75
2023-04-27T16:46:50.587Z,1.42
2023-04-27T16:49:18.282Z,1.00
2023-04-27T16:51:46.012Z,1.00
2023-04-27T16:54:16.264Z,1.13
2023-04-27T16:56:45.875Z,1.10
2023-04-27T16:59:13.887Z,1.33
2023-04-27T17:01:41.851Z,1.05
2023-04-27T17:04:09.690Z,1.60
2023-04-27T17:06:37.444Z,1.15
2023-04-27T17:09:05.773Z,1.55
2023-04-27T17:11:33.666Z,1.90
2023-04-27T17:14:02.714Z,1.80
2023-04-27T17:16:30.497Z,2.15
2023-04-27T17:18:58.247Z,1.70
2023-04-27T17:21:27.514Z,1.70
2023-04-27T17:23:55.664Z,1.83
2023-04-27T17:26:23.355Z,1.92
2023-04-27T17:28:51.662Z,1.50
2023-04-27T17:31:20.699Z,1.30
2023-04-27T17:33:48.427Z,1.55
2023-04-27T17:36:16.231Z,2.13
2023-04-27T17:38:43.941Z,1.75
2023-04-27T17:41:11.868Z,1.80
2023-04-27T17:43:39.604Z,1.52
2023-04-27T17:46:09.648Z,1.20
2023-04-27T17:48:38.828Z,2.20
2023-04-27T17:51:08.414Z,1.63
2023-04-27T17:53:36.084Z,1.25
2023-04-27T17:56:03.768Z,1.70
2023-04-27T17:58:32.470Z,1.88
2023-04-27T18:01:00.445Z,1.52
2023-04-27T18:03:28.194Z,1.70
2023-04-27T18:05:57.329Z,1.63
2023-04-27T18:08:25.077Z,2.05
2023-04-27T18:10:52.847Z,1.75
2023-04-27T18:13:20.841Z,2.10
2023-04-27T18:15:48.671Z,2.30
2023-04-27T18:18:22.531Z,1.35
2023-04-27T18:20:52.375Z,1.92
2023-04-27T18:23:21.395Z,1.92
2023-04-27T18:25:49.066Z,1.70
2023-04-27T18:28:16.811Z,1.45
2023-04-27T18:30:44.589Z,1.35
2023-04-27T18:33:12.434Z,1.60
2023-04-27T18:35:40.238Z,1.60
2023-04-27T18:38:08.018Z,1.40
2023-04-27T18:40:37.795Z,1.40
2023-04-27T18:43:05.602Z,1.65
2023-04-27T18:45:34.274Z,2.20
2023-04-27T18:48:02.167Z,2.35
2023-04-27T18:50:29.879Z,2.05
2023-04-27T18:52:58.342Z,1.55
2023-04-27T18:55:26.159Z,1.52
2023-04-27T18:57:55.202Z,1.15
2023-04-27T19:00:22.972Z,1.73
2023-04-27T19:02:51.989Z,1.40
2023-04-27T19:05:20.090Z,1.70
2023-04-27T19:07:47.829Z,1.55
2023-04-27T19:10:15.670Z,1.02
2023-04-27T19:12:43.367Z,1.52
2023-04-27T19:15:13.876Z,1.52
2023-04-27T19:17:41.877Z,0.93
2023-04-27T19:20:10.645Z,1.40
2023-04-27T19:22:38.356Z,1.27
2023-04-27T19:25:07.190Z,1.85
2023-04-27T19:27:34.928Z,0.98
2023-04-27T19:30:04.149Z,1.08
2023-04-27T19:32:34.210Z,2.10
2023-04-27T19:35:02.378Z,1.42
2023-04-27T19:37:30.130Z,1.35
2023-04-27T19:39:57.930Z,1.17
2023-04-27T19:42:26.281Z,1.35
2023-04-27T19:44:54.269Z,1.63
2023-04-27T19:47:21.990Z,1.45
2023-04-27T19:49:51.140Z,1.60
2023-04-27T19:52:18.880Z,1.00
2023-04-27T19:54:52.174Z,1.40
2023-04-27T19:57:19.915Z,1.40
2023-04-27T19:59:47.622Z,1.67
2023-04-27T20:02:15.804Z,1.98
2023-04-27T20:04:43.893Z,1.58
2023-04-27T20:07:13.169Z,1.70
2023-04-27T20:09:40.888Z,1.80
2023-04-27T20:12:19.444Z,1.48
2023-04-27T20:14:56.716Z,1.48
2023-04-27T20:17:26.083Z,1.88
2023-04-27T20:19:56.477Z,1.70
2023-04-27T20:22:25.686Z,1.55
2023-04-27T20:24:54.013Z,1.92
2023-04-27T20:27:21.746Z,2.10
2023-04-27T20:29:49.539Z,1.45
2023-04-27T20:32:17.227Z,1.30
2023-04-27T20:34:44.967Z,1.60
2023-04-27T20:37:13.453Z,1.67
2023-04-27T20:39:42.539Z,1.95
2023-04-27T20:42:12.511Z,1.90
2023-04-27T20:44:40.218Z,1.88
2023-04-27T20:47:07.908Z,1.98
2023-04-27T20:49:35.855Z,2.08
2023-04-27T20:52:04.030Z,2.28
2023-04-27T20:54:32.795Z,2.15
2023-04-27T20:57:03.681Z,2.67
2023-04-27T20:59:31.488Z,2.30
2023-04-27T21:01:59.314Z,2.03
2023-04-27T21:04:27.258Z,2.08
2023-04-27T21:06:55.093Z,2.40
2023-04-27T21:09:22.867Z,2.60
2023-04-27T21:11:50.606Z,2.47
2023-04-27T21:14:19.762Z,1.90
2023-04-27T21:16:47.479Z,2.83
2023-04-27T21:19:15.293Z,2.63
2023-04-27T21:21:43.358Z,2.70
2023-04-27T21:24:11.247Z,2.22
2023-04-27T21:26:39.069Z,2.80
2023-04-27T21:29:08.218Z,2.83
2023-04-27T21:31:37.441Z,3.25
2023-04-27T21:34:05.349Z,3.30
2023-04-27T21:36:34.018Z,2.22
2023-04-27T21:39:01.768Z,2.60
2023-04-27T21:41:29.487Z,3.45
2023-04-27T21:43:57.157Z,2.90
2023-04-27T21:46:24.904Z,2.65
2023-04-27T21:48:54.030Z,4.32
2023-04-27T21:51:21.851Z,3.28
2023-04-27T21:53:49.567Z,3.28
2023-04-27T21:56:17.249Z,3.25
2023-04-27T21:58:45.763Z,3.33
2023-04-27T22:01:14.199Z,3.38
2023-04-27T22:03:42.421Z,3.20
2023-04-27T22:06:11.622Z,3.13
2023-04-27T22:08:39.388Z,3.30
2023-04-27T22:11:07.880Z,3.35
2023-04-27T22:13:35.751Z,2.70
2023-04-27T22:16:03.541Z,3.40
2023-04-27T22:18:31.305Z,2.65
2023-04-27T22:20:59.112Z,2.55
2023-04-27T22:23:28.135Z,2.70
2023-04-27T22:25:55.804Z,2.90
2023-04-27T22:28:24.127Z,2.92
2023-04-27T22:30:51.985Z,3.00
2023-04-27T22:33:19.857Z,2.95
2023-04-27T22:35:47.855Z,3.97
2023-04-27T22:38:15.752Z,2.75
2023-04-27T22:40:44.748Z,2.63
2023-04-27T22:43:12.480Z,2.92
2023-04-27T22:45:40.244Z,2.72
2023-04-27T22:48:08.117Z,2.97
2023-04-27T22:50:35.920Z,2.47
2023-04-27T22:53:03.625Z,2.92
2023-04-27T22:55:31.457Z,2.70
2023-04-27T22:58:00.514Z,2.25
2023-04-27T23:00:28.242Z,2.88
2023-04-27T23:02:56.139Z,2.63
2023-04-27T23:05:24.297Z,2.70
2023-04-27T23:07:52.391Z,3.20
2023-04-27T23:10:20.082Z,3.58
2023-04-27T23:12:47.779Z,2.85
2023-04-27T23:15:17.213Z,2.53
2023-04-27T23:17:44.935Z,2.72
2023-04-27T23:20:26.732Z,2.60
2023-04-27T23:22:56.322Z,3.03
2023-04-27T23:25:24.188Z,2.63
2023-04-27T23:27:52.778Z,2.78
2023-04-27T23:30:22.595Z,2.92
2023-04-27T23:32:50.571Z,3.28
2023-04-27T23:35:18.386Z,2.50
2023-04-27T23:37:46.164Z,2.75
2023-04-27T23:40:14.083Z,3.72
2023-04-27T23:42:41.923Z,2.95
2023-04-27T23:45:10.214Z,1.95
2023-04-27T23:47:39.333Z,2.67
2023-04-27T23:50:07.905Z,2.72
2023-04-27T23:52:35.605Z,2.85
2023-04-27T23:55:03.379Z,3.13
2023-04-27T23:57:31.189Z,3.17
2023-04-27T23:59:58.860Z,3.17
